Time;durP1;ratioP1;P1;durP2;ratioP2;P2;SDS_P1;SDS_P2;PMS_P1;PMS_P2;Temp;Humidity;BMP_temperature;BMP_pressure;BME280_temperature;BME280_humidity;BME280_pressure;Samples;Min_cycle;Max_cycle;Signal;HPM_P1;HPM_P2
2024/01/05 00:00:38;;;;;;;3.73;1.80;;;;;;;;;;5053547;28;20773;-72
2024/01/05 00:03:04;;;;;;;4.33;2.40;;;;;;;;;;5053518;28;20414;-72
2024/01/05 00:05:31;;;;;;;4.30;1.83;;;;;;;;;;5053890;28;20510;-72
2024/01/05 00:07:58;;;;;;;7.47;2.60;;;;;;;;;;5053358;28;20425;-72
2024/01/05 00:10:24;;;;;;;6.37;2.40;;;;;;;;;;5035673;28;20433;-72
2024/01/05 00:12:51;;;;;;;3.20;1.30;;;;;;;;;;5053637;28;20413;-72
2024/01/05 00:15:18;;;;;;;4.10;1.73;;;;;;;;;;5053161;28;20457;-72
2024/01/05 00:17:45;;;;;;;3.37;1.60;;;;;;;;;;5035675;28;20445;-72
2024/01/05 00:20:12;;;;;;;4.20;1.27;;;;;;;;;;5035640;28;20424;-72
2024/01/05 00:22:39;;;;;;;3.10;1.30;;;;;;;;;;5053262;28;20460;-72
2024/01/05 00:25:05;;;;;;;3.97;1.17;;;;;;;;;;5053495;28;20902;-72
2024/01/05 00:27:32;;;;;;;2.90;1.30;;;;;;;;;;5053576;28;20426;-72
2024/01/05 00:29:59;;;;;;;2.77;1.33;;;;;;;;;;5035595;28;21019;-72
2024/01/05 00:32:25;;;;;;;3.33;1.10;;;;;;;;;;5035751;28;20961;-72
2024/01/05 00:34:52;;;;;;;3.53;1.10;;;;;;;;;;5053497;28;20430;-72
2024/01/05 00:37:19;;;;;;;1.67;0.90;;;;;;;;;;5055337;28;20416;-71
2024/01/05 00:39:46;;;;;;;1.47;0.97;;;;;;;;;;5039815;28;20433;-71
2024/01/05 00:42:12;;;;;;;2.20;1.10;;;;;;;;;;5056776;28;20508;-71
2024/01/05 00:44:40;;;;;;;3.07;1.30;;;;;;;;;;5039222;28;20433;-71
2024/01/05 00:47:07;;;;;;;2.63;1.30;;;;;;;;;;5039746;28;20421;-72
2024/01/05 00:49:33;;;;;;;2.33;1.27;;;;;;;;;;5039064;28;20452;-72
2024/01/05 00:52:00;;;;;;;2.33;1.20;;;;;;;;;;5072713;28;20427;-72
2024/01/05 00:54:27;;;;;;;3.00;1.33;;;;;;;;;;5072138;28;20449;-72
2024/01/05 00:56:54;;;;;;;3.23;2.00;;;;;;;;;;5057136;28;20460;-72
2024/01/05 00:59:21;;;;;;;5.97;2.20;;;;;;;;;;5038969;28;20433;-72
2024/01/05 01:01:47;;;;;;;3.90;1.23;;;;;;;;;;5039435;28;20839;-72
2024/01/05 01:04:14;;;;;;;4.70;2.00;;;;;;;;;;5056686;28;20424;-72
2024/01/05 01:06:41;;;;;;;3.00;1.50;;;;;;;;;;5038749;28;20436;-72
2024/01/05 01:09:09;;;;;;;3.83;1.60;;;;;;;;;;5039419;28;20499;-72
2024/01/05 01:11:53;;;;;;;4.43;1.27;;;;;;;;;;5056472;28;20405;-72
2024/01/05 01:46:57;;;;;;;5.40;1.53;;;;;;;;;;4835379;28;20456;-71
2024/01/05 01:49:24;;;;;;;5.20;1.50;;;;;;;;;;5036800;28;20428;-72
2024/01/05 01:51:50;;;;;;;3.97;1.20;;;;;;;;;;5037923;28;20429;-71
2024/01/05 01:54:17;;;;;;;2.37;1.27;;;;;;;;;;5054401;28;20441;-71
2024/01/05 01:56:45;;;;;;;3.00;1.20;;;;;;;;;;5055397;28;20457;-71
2024/01/05 01:59:12;;;;;;;1.97;1.30;;;;;;;;;;5038057;28;20449;-72
2024/01/05 02:01:38;;;;;;;2.40;1.33;;;;;;;;;;5021139;28;20429;-72
2024/01/05 02:04:05;;;;;;;2.90;1.23;;;;;;;;;;5021200;28;20435;-72
2024/01/05 02:06:33;;;;;;;3.43;1.40;;;;;;;;;;5021447;28;20840;-71
2024/01/05 02:08:59;;;;;;;2.87;1.40;;;;;;;;;;5021721;28;20780;-72
2024/01/05 02:11:26;;;;;;;2.33;1.37;;;;;;;;;;5037593;28;20791;-72
2024/01/05 02:13:53;;;;;;;3.53;1.50;;;;;;;;;;5021139;28;20437;-72
2024/01/05 02:16:19;;;;;;;1.83;1.17;;;;;;;;;;5004911;28;20461;-71
2024/01/05 02:18:51;;;;;;;2.93;1.40;;;;;;;;;;5055614;28;20417;-72
2024/01/05 02:21:18;;;;;;;4.53;1.87;;;;;;;;;;5019849;28;20998;-71
2024/01/05 02:23:45;;;;;;;5.43;1.70;;;;;;;;;;5037376;28;20433;-72
2024/01/05 02:26:11;;;;;;;3.27;1.53;;;;;;;;;;5037444;28;20511;-71
2024/01/05 02:28:38;;;;;;;3.97;1.87;;;;;;;;;;5020893;28;20429;-72
2024/01/05 02:31:05;;;;;;;7.07;1.80;;;;;;;;;;5021152;28;20445;-72
2024/01/05 02:33:32;;;;;;;3.97;1.77;;;;;;;;;;5055194;28;20463;-72
2024/01/05 02:35:58;;;;;;;1.97;1.37;;;;;;;;;;5037130;28;20803;-72
2024/01/05 02:38:25;;;;;;;4.43;1.20;;;;;;;;;;5037026;28;20524;-71
2024/01/05 02:40:55;;;;;;;2.57;1.37;;;;;;;;;;5021521;28;20428;-72
2024/01/05 02:43:22;;;;;;;3.40;1.50;;;;;;;;;;5021827;28;20398;-71
2024/01/05 02:45:48;;;;;;;3.07;1.50;;;;;;;;;;5055123;28;20434;-72
2024/01/05 02:48:15;;;;;;;2.37;1.30;;;;;;;;;;5037018;28;20450;-72
2024/01/05 02:50:42;;;;;;;3.53;1.60;;;;;;;;;;5021342;28;20441;-72
2024/01/05 02:53:09;;;;;;;1.97;1.40;;;;;;;;;;5036845;28;20469;-72
2024/01/05 02:55:35;;;;;;;4.17;1.40;;;;;;;;;;5054601;28;20768;-71
2024/01/05 02:58:02;;;;;;;2.93;1.47;;;;;;;;;;5054423;28;20429;-71
2024/01/05 03:00:28;;;;;;;1.93;1.27;;;;;;;;;;5054193;28;20463;-72
2024/01/05 03:02:56;;;;;;;2.97;1.50;;;;;;;;;;5054452;28;20445;-72
2024/01/05 03:05:23;;;;;;;1.90;1.03;;;;;;;;;;5020858;28;20923;-73
2024/01/05 03:07:49;;;;;;;2.23;1.37;;;;;;;;;;5036554;28;20433;-73
2024/01/05 03:10:33;;;;;;;3.00;1.50;;;;;;;;;;5054903;28;20382;-73
2024/01/05 03:13:00;;;;;;;4.07;1.30;;;;;;;;;;5020391;28;20413;-72
2024/01/05 03:15:45;;;;;;;4.13;1.63;;;;;;;;;;5054414;28;20386;-72
2024/01/05 03:18:12;;;;;;;2.43;1.20;;;;;;;;;;5036404;28;20437;-69
2024/01/05 03:20:56;;;;;;;3.27;1.67;;;;;;;;;;5036452;28;20412;-69
2024/01/05 03:23:23;;;;;;;2.80;1.67;;;;;;;;;;5036426;28;20413;-71
2024/01/05 03:25:53;;;;;;;2.70;1.50;;;;;;;;;;5040210;28;20455;-82
2024/01/05 03:28:21;;;;;;;2.67;1.30;;;;;;;;;;5051370;28;20438;-79
2024/01/05 03:30:48;;;;;;;3.80;2.03;;;;;;;;;;5050586;28;20427;-84
2024/01/05 03:33:15;;;;;;;4.97;1.90;;;;;;;;;;5066957;28;20548;-69
2024/01/05 03:35:42;;;;;;;2.97;1.67;;;;;;;;;;5050932;28;20477;-78
2024/01/05 03:38:08;;;;;;;3.33;1.70;;;;;;;;;;5067331;28;20472;-76
2024/01/05 03:40:35;;;;;;;4.70;1.97;;;;;;;;;;5050669;28;20790;-73
2024/01/05 03:43:01;;;;;;;4.17;2.00;;;;;;;;;;5066678;28;20435;-73
2024/01/05 03:45:28;;;;;;;4.63;2.20;;;;;;;;;;5085113;28;20518;-77
2024/01/05 03:47:55;;;;;;;3.70;1.67;;;;;;;;;;5050170;28;20479;-74
2024/01/05 03:50:21;;;;;;;4.93;1.80;;;;;;;;;;5084877;28;21146;-76
2024/01/05 03:52:48;;;;;;;3.60;2.10;;;;;;;;;;5066931;28;20431;-76
2024/01/05 03:55:15;;;;;;;3.60;1.67;;;;;;;;;;5066660;28;20438;-74
2024/01/05 03:57:42;;;;;;;3.07;1.87;;;;;;;;;;5066805;28;20886;-69
2024/01/05 04:00:09;;;;;;;2.87;2.03;;;;;;;;;;5066627;28;20431;-74
2024/01/05 04:02:36;;;;;;;5.80;2.50;;;;;;;;;;5066670;28;20528;-74
2024/01/05 04:05:03;;;;;;;5.37;2.30;;;;;;;;;;5049953;28;20435;-69
2024/01/05 04:07:30;;;;;;;3.33;2.13;;;;;;;;;;5050378;28;20484;-77
2024/01/05 04:09:56;;;;;;;3.50;2.07;;;;;;;;;;5049883;28;20428;-77
2024/01/05 04:12:23;;;;;;;5.13;1.93;;;;;;;;;;5086907;28;20442;-76
2024/01/05 04:14:50;;;;;;;3.03;1.77;;;;;;;;;;5054195;28;20477;-75
2024/01/05 04:17:17;;;;;;;3.67;2.00;;;;;;;;;;5053793;28;20469;-75
2024/01/05 04:19:44;;;;;;;2.10;1.73;;;;;;;;;;5053810;28;20438;-76
2024/01/05 04:22:10;;;;;;;3.47;2.20;;;;;;;;;;5070674;28;20538;-74
2024/01/05 04:24:37;;;;;;;3.33;2.13;;;;;;;;;;5051568;28;20423;-74
2024/01/05 04:27:04;;;;;;;5.10;2.50;;;;;;;;;;5069565;28;20554;-76
2024/01/05 04:29:31;;;;;;;5.33;2.63;;;;;;;;;;5054026;28;20429;-75
2024/01/05 04:31:57;;;;;;;5.33;2.77;;;;;;;;;;5070511;28;20415;-74
2024/01/05 04:34:24;;;;;;;6.80;2.90;;;;;;;;;;5053863;28;20840;-73
2024/01/05 04:36:51;;;;;;;6.17;2.77;;;;;;;;;;5069977;28;20822;-73
2024/01/05 04:39:18;;;;;;;5.53;2.60;;;;;;;;;;5054021;28;20435;-73
2024/01/05 04:41:44;;;;;;;6.87;2.90;;;;;;;;;;5070022;28;20438;-74
2024/01/05 04:44:11;;;;;;;9.43;3.43;;;;;;;;;;5053539;28;20442;-76
2024/01/05 04:46:38;;;;;;;6.47;3.13;;;;;;;;;;5069953;28;20526;-78
2024/01/05 04:49:04;;;;;;;6.37;2.70;;;;;;;;;;5066738;28;20460;-76
2024/01/05 04:51:37;;;;;;;5.40;2.73;;;;;;;;;;5066754;28;20424;-75
2024/01/05 04:54:25;;;;;;;4.27;2.60;;;;;;;;;;5062529;28;20514;-74
2024/01/05 04:57:09;;;;;;;5.47;2.67;;;;;;;;;;5052320;28;20455;-71
2024/01/05 04:59:41;;;;;;;6.50;2.60;;;;;;;;;;5049588;28;20428;-74
2024/01/05 05:02:08;;;;;;;3.50;2.30;;;;;;;;;;5066440;28;20456;-74
2024/01/05 05:04:35;;;;;;;5.63;2.20;;;;;;;;;;5066427;28;20962;-72
2024/01/05 05:07:01;;;;;;;3.93;1.87;;;;;;;;;;5067140;28;20911;-69
2024/01/05 05:09:28;;;;;;;8.07;1.50;;;;;;;;;;5049783;28;20514;-73
2024/01/05 05:11:55;;;;;;;2.27;1.43;;;;;;;;;;5049701;28;20427;-75
2024/01/05 05:14:23;;;;;;;3.07;1.63;;;;;;;;;;5049934;28;20433;-74
2024/01/05 05:16:49;;;;;;;2.93;1.53;;;;;;;;;;5049290;28;20570;-72
2024/01/05 05:19:16;;;;;;;2.23;1.20;;;;;;;;;;5066152;28;20535;-74
2024/01/05 05:22:00;;;;;;;3.13;1.57;;;;;;;;;;5065786;28;20460;-72
2024/01/05 05:24:27;;;;;;;2.63;1.40;;;;;;;;;;5048901;28;20519;-72
2024/01/05 05:26:54;;;;;;;3.37;1.50;;;;;;;;;;5011255;28;20456;-72
2024/01/05 05:29:20;;;;;;;4.07;1.67;;;;;;;;;;5065589;28;20424;-72
2024/01/05 05:31:47;;;;;;;2.93;1.70;;;;;;;;;;5048904;28;20824;-72
2024/01/05 05:34:14;;;;;;;2.27;1.30;;;;;;;;;;5048832;28;20781;-74
2024/01/05 05:36:41;;;;;;;1.97;1.30;;;;;;;;;;5067100;28;20568;-71
2024/01/05 05:39:09;;;;;;;2.67;1.50;;;;;;;;;;5048928;28;20428;-73
2024/01/05 05:41:36;;;;;;;3.70;1.90;;;;;;;;;;5032562;28;20439;-70
2024/01/05 05:44:03;;;;;;;3.20;1.83;;;;;;;;;;5067158;28;20428;-70
2024/01/05 05:46:30;;;;;;;4.07;2.00;;;;;;;;;;5049304;28;20425;-70
2024/01/05 05:48:56;;;;;;;3.90;2.13;;;;;;;;;;5065546;28;20436;-66
2024/01/05 05:51:23;;;;;;;6.70;2.60;;;;;;;;;;5067146;28;20911;-66
2024/01/05 05:53:50;;;;;;;4.43;2.37;;;;;;;;;;5067791;28;20424;-66
2024/01/05 05:56:18;;;;;;;4.10;2.20;;;;;;;;;;5033177;28;20434;-66
2024/01/05 05:58:44;;;;;;;7.10;3.17;;;;;;;;;;5048719;28;20438;-66
2024/01/05 06:01:13;;;;;;;4.70;2.17;;;;;;;;;;5032096;28;20829;-65
2024/01/05 06:03:39;;;;;;;4.77;2.77;;;;;;;;;;5015652;28;20528;-72
2024/01/05 06:06:16;;;;;;;4.40;2.60;;;;;;;;;;5066201;28;20937;-72
2024/01/05 06:08:44;;;;;;;3.47;2.10;;;;;;;;;;5031514;28;20424;-70
2024/01/05 06:11:12;;;;;;;5.40;2.23;;;;;;;;;;5048502;28;20429;-72
2024/01/05 06:13:39;;;;;;;6.17;2.60;;;;;;;;;;5064463;28;20428;-68
2024/01/05 06:16:06;;;;;;;7.37;2.80;;;;;;;;;;5066202;28;20815;-69
2024/01/05 06:18:32;;;;;;;7.60;2.87;;;;;;;;;;5064502;28;20478;-72
2024/01/05 06:20:59;;;;;;;8.60;3.67;;;;;;;;;;5064708;28;20432;-72
2024/01/05 06:23:26;;;;;;;6.37;2.73;;;;;;;;;;5048340;28;20437;-73
2024/01/05 06:25:53;;;;;;;6.67;3.00;;;;;;;;;;5020148;28;20476;-71
2024/01/05 06:28:20;;;;;;;6.50;3.23;;;;;;;;;;5031054;28;20431;-72
2024/01/05 06:30:49;;;;;;;5.97;3.20;;;;;;;;;;5015519;28;20440;-72
2024/01/05 06:33:16;;;;;;;7.10;2.80;;;;;;;;;;5031201;28;20516;-69
2024/01/05 06:35:43;;;;;;;4.10;2.30;;;;;;;;;;5014505;28;20431;-74
2024/01/05 06:38:09;;;;;;;4.73;2.90;;;;;;;;;;5034019;28;20489;-71
2024/01/05 06:40:36;;;;;;;6.40;2.93;;;;;;;;;;5074808;28;20440;-71
2024/01/05 06:43:03;;;;;;;5.30;2.77;;;;;;;;;;5057149;28;20470;-71
2024/01/05 06:45:29;;;;;;;3.60;2.00;;;;;;;;;;5066172;28;20422;-73
2024/01/05 06:47:56;;;;;;;5.50;2.80;;;;;;;;;;5065572;28;20487;-72
2024/01/05 06:50:24;;;;;;;7.87;3.27;;;;;;;;;;5096426;28;20435;-72
2024/01/05 06:52:51;;;;;;;6.60;2.63;;;;;;;;;;5097277;28;20442;-72
2024/01/05 06:55:19;;;;;;;7.50;3.10;;;;;;;;;;5073695;28;20431;-72
2024/01/05 06:57:47;;;;;;;7.50;3.47;;;;;;;;;;5057539;28;20478;-72
2024/01/05 07:00:32;;;;;;;4.27;2.70;;;;;;;;;;5057467;28;20397;-72
2024/01/05 07:02:59;;;;;;;4.83;2.50;;;;;;;;;;5074895;28;20412;-72
2024/01/05 07:05:43;;;;;;;5.80;3.27;;;;;;;;;;5045384;28;20379;-72
2024/01/05 07:08:10;;;;;;;3.90;2.60;;;;;;;;;;5040290;28;20428;-72
2024/01/05 07:10:54;;;;;;;5.57;3.20;;;;;;;;;;5042717;28;20415;-72
2024/01/05 07:13:21;;;;;;;6.10;2.97;;;;;;;;;;5074621;28;20412;-77
2024/01/05 07:15:48;;;;;;;5.87;3.60;;;;;;;;;;5039357;28;20466;-70
2024/01/05 07:18:14;;;;;;;7.53;3.83;;;;;;;;;;5074258;28;20455;-72
2024/01/05 07:20:41;;;;;;;8.50;3.90;;;;;;;;;;5039950;28;20494;-71
2024/01/05 07:23:08;;;;;;;7.13;3.50;;;;;;;;;;5074002;28;20831;-70
2024/01/05 07:25:35;;;;;;;5.30;3.40;;;;;;;;;;5056339;28;20423;-72
2024/01/05 07:28:05;;;;;;;5.77;3.40;;;;;;;;;;5056227;28;20436;-72
2024/01/05 07:30:32;;;;;;;8.70;3.70;;;;;;;;;;5056219;28;20455;-73
2024/01/05 07:32:59;;;;;;;8.60;4.37;;;;;;;;;;5074761;28;20424;-73
2024/01/05 07:35:26;;;;;;;7.33;3.97;;;;;;;;;;5073795;28;21005;-73
2024/01/05 07:37:56;;;;;;;11.47;5.13;;;;;;;;;;5056212;28;20460;-73
2024/01/05 07:40:22;;;;;;;12.30;5.67;;;;;;;;;;5045401;28;20915;-71
2024/01/05 07:42:49;;;;;;;17.13;5.97;;;;;;;;;;5057018;28;20458;-72
2024/01/05 07:45:16;;;;;;;10.57;5.60;;;;;;;;;;5030500;28;20432;-75
2024/01/05 07:47:43;;;;;;;10.50;5.43;;;;;;;;;;5064441;28;20459;-73
2024/01/05 07:50:10;;;;;;;11.53;5.80;;;;;;;;;;5030260;28;20432;-73
2024/01/05 07:52:37;;;;;;;13.13;6.40;;;;;;;;;;5029915;28;20429;-72
2024/01/05 07:55:04;;;;;;;10.97;5.73;;;;;;;;;;5023987;28;20435;-70
2024/01/05 07:57:30;;;;;;;7.43;4.37;;;;;;;;;;5049759;28;20468;-68
2024/01/05 07:59:57;;;;;;;6.40;3.57;;;;;;;;;;5066163;28;20448;-68
2024/01/05 08:02:50;;;;;;;7.60;3.77;;;;;;;;;;5029960;28;20412;-68
2024/01/05 08:05:19;;;;;;;8.73;3.93;;;;;;;;;;5045759;28;20518;-71
2024/01/05 08:07:46;;;;;;;11.50;5.03;;;;;;;;;;5046789;28;20439;-73
2024/01/05 08:14:14;;;;;;;15.80;6.47;;;;;;;;;;5064633;28;20901;-71
2024/01/05 08:16:40;;;;;;;16.90;7.00;;;;;;;;;;5030400;28;20922;-70
2024/01/05 08:19:07;;;;;;;10.07;3.90;;;;;;;;;;5046334;28;20513;-72
2024/01/05 08:21:34;;;;;;;11.03;5.57;;;;;;;;;;5046135;28;20487;-72
2024/01/05 08:24:02;;;;;;;11.33;5.30;;;;;;;;;;5013619;28;20521;-72
2024/01/05 08:26:29;;;;;;;9.53;4.93;;;;;;;;;;5045998;28;20841;-74
2024/01/05 08:28:56;;;;;;;15.57;6.30;;;;;;;;;;5029945;28;20443;-73
2024/01/05 08:31:23;;;;;;;16.10;6.23;;;;;;;;;;5029563;28;20502;-73
2024/01/05 08:33:50;;;;;;;15.43;6.90;;;;;;;;;;5029867;28;20852;-75
2024/01/05 08:36:17;;;;;;;7.80;4.47;;;;;;;;;;5029501;28;20474;-74
2024/01/05 08:38:45;;;;;;;12.77;5.27;;;;;;;;;;5046295;28;20545;-73
2024/01/05 08:41:12;;;;;;;10.63;4.90;;;;;;;;;;5018805;28;20550;-72
2024/01/05 08:43:41;;;;;;;10.93;4.50;;;;;;;;;;5046266;28;20432;-73
2024/01/05 08:46:08;;;;;;;7.63;4.20;;;;;;;;;;5029617;28;20502;-73
2024/01/05 08:48:35;;;;;;;6.83;3.57;;;;;;;;;;5030185;28;20468;-73
2024/01/05 08:51:02;;;;;;;8.27;3.57;;;;;;;;;;5029670;28;20413;-73
2024/01/05 08:53:29;;;;;;;11.13;4.23;;;;;;;;;;5045950;28;20427;-72
2024/01/05 08:56:14;;;;;;;6.13;3.37;;;;;;;;;;5032012;28;20420;-69
2024/01/05 08:58:40;;;;;;;9.33;4.03;;;;;;;;;;5054281;28;20487;-72
2024/01/05 09:01:08;;;;;;;6.37;3.43;;;;;;;;;;5034075;28;20459;-73
2024/01/05 09:03:34;;;;;;;11.10;4.60;;;;;;;;;;5033394;28;20434;-70
2024/01/05 09:06:01;;;;;;;8.70;4.40;;;;;;;;;;5049534;28;22212;-72
2024/01/05 09:08:46;;;;;;;9.53;4.27;;;;;;;;;;5049288;28;20454;-72
2024/01/05 09:11:12;;;;;;;8.10;3.67;;;;;;;;;;5033260;28;20505;-73
2024/01/05 09:13:40;;;;;;;8.50;4.03;;;;;;;;;;5016603;28;20440;-70
2024/01/05 09:16:06;;;;;;;8.93;3.93;;;;;;;;;;5049042;28;20927;-70
2024/01/05 09:18:33;;;;;;;9.87;4.47;;;;;;;;;;5067089;28;20533;-72
2024/01/05 09:21:02;;;;;;;12.07;4.90;;;;;;;;;;5032811;28;21022;-74
2024/01/05 09:23:29;;;;;;;10.00;4.87;;;;;;;;;;5032832;28;20436;-73
2024/01/05 09:25:55;;;;;;;10.07;4.20;;;;;;;;;;5067211;28;20435;-73
2024/01/05 09:28:22;;;;;;;9.60;4.77;;;;;;;;;;5049386;28;20424;-72
2024/01/05 09:30:49;;;;;;;11.77;5.03;;;;;;;;;;5049151;28;20444;-71
2024/01/05 09:33:21;;;;;;;10.73;4.20;;;;;;;;;;5034134;28;20455;-74
2024/01/05 09:35:48;;;;;;;10.07;5.10;;;;;;;;;;5049223;28;20424;-72
2024/01/05 09:38:15;;;;;;;10.17;4.77;;;;;;;;;;5032211;28;20477;-69
2024/01/05 09:40:42;;;;;;;9.67;4.73;;;;;;;;;;5037171;28;20435;-71
2024/01/05 09:43:09;;;;;;;11.23;5.97;;;;;;;;;;5032498;28;20428;-67
2024/01/05 09:45:36;;;;;;;14.47;5.57;;;;;;;;;;5049109;28;20770;-70
2024/01/05 09:48:03;;;;;;;11.70;5.23;;;;;;;;;;5048593;28;20468;-69
2024/01/05 09:50:31;;;;;;;11.07;5.23;;;;;;;;;;5032481;28;20430;-72
2024/01/05 09:52:59;;;;;;;10.63;4.57;;;;;;;;;;5049297;28;20429;-71
2024/01/05 09:55:26;;;;;;;6.03;3.33;;;;;;;;;;5048920;28;20416;-73
2024/01/05 09:57:53;;;;;;;7.47;3.80;;;;;;;;;;5032574;28;21002;-73
2024/01/05 10:00:20;;;;;;;8.10;4.13;;;;;;;;;;5049060;28;20750;-71
2024/01/05 10:03:07;;;;;;;9.57;4.60;;;;;;;;;;5032717;28;20409;-69
2024/01/05 10:05:54;;;;;;;7.17;3.97;;;;;;;;;;5051514;28;20408;-67
2024/01/05 10:08:24;;;;;;;8.57;4.37;;;;;;;;;;5048833;28;20424;-69
2024/01/05 10:10:55;;;;;;;8.77;4.60;;;;;;;;;;5030875;28;20519;-72
2024/01/05 10:13:22;;;;;;;8.20;5.20;;;;;;;;;;5032283;28;20493;-72
2024/01/05 10:15:55;;;;;;;9.03;5.10;;;;;;;;;;5048319;28;20429;-73
2024/01/05 10:18:22;;;;;;;8.43;4.67;;;;;;;;;;5048716;28;20463;-69
2024/01/05 10:20:51;;;;;;;10.40;5.10;;;;;;;;;;5031964;28;20439;-71
2024/01/05 10:23:18;;;;;;;11.00;5.03;;;;;;;;;;5031711;28;20465;-72
2024/01/05 10:26:04;;;;;;;4.90;3.53;;;;;;;;;;5033272;28;20460;-71
2024/01/05 10:28:37;;;;;;;7.70;3.83;;;;;;;;;;5015141;28;20930;-72
2024/01/05 10:31:12;;;;;;;7.67;4.00;;;;;;;;;;5047682;28;20454;-68
2024/01/05 10:33:51;;;;;;;8.63;4.13;;;;;;;;;;5048233;28;20432;-72
2024/01/05 10:36:19;;;;;;;8.30;3.87;;;;;;;;;;5065897;28;20459;-72
2024/01/05 10:38:46;;;;;;;7.70;4.47;;;;;;;;;;5031195;28;20511;-71
2024/01/05 10:41:15;;;;;;;10.07;4.40;;;;;;;;;;5020117;28;20459;-71
2024/01/05 10:43:42;;;;;;;10.37;4.83;;;;;;;;;;5031232;28;20753;-71
2024/01/05 10:46:10;;;;;;;12.50;4.80;;;;;;;;;;5031381;28;20463;-72
2024/01/05 10:48:37;;;;;;;10.67;5.10;;;;;;;;;;5014465;28;20497;-73
2024/01/05 10:51:03;;;;;;;12.07;5.90;;;;;;;;;;5047597;28;20427;-73
2024/01/05 10:53:30;;;;;;;15.90;6.63;;;;;;;;;;5047570;28;20424;-72
2024/01/05 10:55:59;;;;;;;10.93;5.13;;;;;;;;;;5031716;28;20433;-72
2024/01/05 10:58:25;;;;;;;11.30;4.77;;;;;;;;;;5047569;28;20563;-71
2024/01/05 11:00:54;;;;;;;10.73;5.33;;;;;;;;;;5047645;28;20516;-68
2024/01/05 11:03:23;;;;;;;10.07;5.37;;;;;;;;;;5047749;28;20420;-72
2024/01/05 11:06:10;;;;;;;9.80;4.97;;;;;;;;;;5050224;28;20397;-71
2024/01/05 11:08:37;;;;;;;7.10;4.07;;;;;;;;;;5031439;28;20428;-72
2024/01/05 11:11:19;;;;;;;7.30;4.07;;;;;;;;;;5047660;28;20428;-74
2024/01/05 11:13:45;;;;;;;9.93;4.80;;;;;;;;;;5047202;28;20420;-73
2024/01/05 11:16:24;;;;;;;11.87;5.53;;;;;;;;;;5047662;28;20424;-73
2024/01/05 11:19:03;;;;;;;8.93;5.00;;;;;;;;;;5047162;28;21155;-73
2024/01/05 11:21:49;;;;;;;8.07;4.03;;;;;;;;;;5047001;28;20428;-73
2024/01/05 11:24:16;;;;;;;9.47;3.83;;;;;;;;;;5065009;28;20443;-74
2024/01/05 11:26:48;;;;;;;8.07;4.40;;;;;;;;;;5047867;28;20455;-73
2024/01/05 11:29:38;;;;;;;6.67;3.87;;;;;;;;;;5030606;28;20519;-73
2024/01/05 11:32:05;;;;;;;8.07;4.13;;;;;;;;;;5037117;28;20498;-72
2024/01/05 11:34:34;;;;;;;5.57;3.37;;;;;;;;;;5047317;28;20451;-71
2024/01/05 11:37:04;;;;;;;6.10;3.67;;;;;;;;;;5014896;28;20432;-73
2024/01/05 11:39:47;;;;;;;8.63;4.43;;;;;;;;;;5030229;28;20467;-72
2024/01/05 11:42:24;;;;;;;6.17;3.70;;;;;;;;;;5018906;28;20472;-71
2024/01/05 11:44:51;;;;;;;7.83;4.17;;;;;;;;;;5047302;28;20428;-72
2024/01/05 11:47:37;;;;;;;7.77;3.87;;;;;;;;;;5047435;28;20476;-71
2024/01/05 11:50:22;;;;;;;8.00;4.13;;;;;;;;;;5047616;28;20571;-69
2024/01/05 11:53:27;;;;;;;7.50;3.47;;;;;;;;;;5047084;28;20498;-69
2024/01/05 11:56:14;;;;;;;8.33;4.90;;;;;;;;;;4969319;28;20451;-69
2024/01/05 11:58:43;;;;;;;9.40;4.53;;;;;;;;;;5044045;28;20483;-70
2024/01/05 12:01:11;;;;;;;10.17;3.90;;;;;;;;;;5046825;28;20413;-70
2024/01/05 12:03:38;;;;;;;8.30;4.30;;;;;;;;;;5064570;28;20760;-69
2024/01/05 12:06:06;;;;;;;7.63;4.00;;;;;;;;;;5064714;28;20423;-69
2024/01/05 12:08:33;;;;;;;8.60;4.60;;;;;;;;;;5013482;28;20432;-71
2024/01/05 12:11:02;;;;;;;9.60;4.00;;;;;;;;;;5046566;28;20839;-71
2024/01/05 12:13:30;;;;;;;5.77;3.20;;;;;;;;;;5029977;28;20432;-71
2024/01/05 12:15:57;;;;;;;7.20;3.30;;;;;;;;;;5013484;28;20466;-71
2024/01/05 12:18:55;;;;;;;12.07;3.70;;;;;;;;;;5046931;28;20575;-72
2024/01/05 12:21:22;;;;;;;8.50;3.73;;;;;;;;;;5061401;28;20968;-71
2024/01/05 12:23:51;;;;;;;5.97;2.83;;;;;;;;;;5046550;28;20420;-71
2024/01/05 12:26:18;;;;;;;8.07;3.90;;;;;;;;;;5030158;28;20511;-71
2024/01/05 12:28:46;;;;;;;11.03;4.63;;;;;;;;;;5030092;28;20424;-66
2024/01/05 12:31:13;;;;;;;10.10;4.57;;;;;;;;;;5046515;28;20470;-67
2024/01/05 12:33:40;;;;;;;11.20;5.40;;;;;;;;;;5033120;28;20876;-66
2024/01/05 12:36:09;;;;;;;14.07;5.90;;;;;;;;;;5051015;28;20909;-66
2024/01/05 12:38:37;;;;;;;17.73;8.63;;;;;;;;;;5049961;28;21003;-71
2024/01/05 12:41:08;;;;;;;17.27;9.33;;;;;;;;;;5030620;28;20788;-70
2024/01/05 12:43:43;;;;;;;20.23;10.93;;;;;;;;;;5066591;28;20574;-70
2024/01/05 12:46:10;;;;;;;19.90;9.23;;;;;;;;;;5050109;28;20497;-71
2024/01/05 12:48:37;;;;;;;18.13;8.13;;;;;;;;;;5049931;28;20453;-73
2024/01/05 12:51:04;;;;;;;26.57;11.77;;;;;;;;;;5050668;28;20425;-70
2024/01/05 12:53:31;;;;;;;21.10;8.73;;;;;;;;;;5066665;28;20416;-72
2024/01/05 12:56:10;;;;;;;44.80;20.80;;;;;;;;;;5060706;28;20440;-71
2024/01/05 12:58:40;;;;;;;40.40;19.00;;;;;;;;;;5034309;28;20475;-72
2024/01/05 13:01:14;;;;;;;30.60;15.80;;;;;;;;;;5049987;28;20792;-72
2024/01/05 13:03:47;;;;;;;20.67;10.93;;;;;;;;;;5033882;28;20771;-72
2024/01/05 13:06:31;;;;;;;12.53;7.50;;;;;;;;;;5035781;28;20418;-72
2024/01/05 13:08:58;;;;;;;17.87;9.37;;;;;;;;;;5050359;28;20470;-72
2024/01/05 13:11:25;;;;;;;16.60;7.50;;;;;;;;;;5049971;28;20428;-70
2024/01/05 13:13:52;;;;;;;15.93;6.60;;;;;;;;;;5067826;28;20439;-68
2024/01/05 13:16:19;;;;;;;19.57;7.83;;;;;;;;;;5056399;28;20426;-69
2024/01/05 13:18:46;;;;;;;29.43;11.00;;;;;;;;;;5032615;28;20553;-68
2024/01/05 13:21:13;;;;;;;37.07;15.00;;;;;;;;;;5067141;28;21989;-68
2024/01/05 13:23:42;;;;;;;28.07;11.23;;;;;;;;;;5032413;28;20507;-68
2024/01/05 13:26:09;;;;;;;21.77;9.63;;;;;;;;;;5049777;28;20448;-68
2024/01/05 13:28:36;;;;;;;17.03;8.63;;;;;;;;;;5032286;28;20423;-69
2024/01/05 13:31:03;;;;;;;19.20;8.63;;;;;;;;;;5067413;28;20439;-68
2024/01/05 13:37:48;;;;;;;20.37;8.80;;;;;;;;;;5067202;28;20505;-68
2024/01/05 13:40:15;;;;;;;17.37;8.87;;;;;;;;;;5032732;28;20467;-68
2024/01/05 13:42:43;;;;;;;21.47;9.13;;;;;;;;;;5044383;28;20468;-68
2024/01/05 13:45:10;;;;;;;16.30;8.80;;;;;;;;;;5056201;28;20948;-68
2024/01/05 13:47:38;;;;;;;18.97;8.87;;;;;;;;;;5066848;28;20467;-68
2024/01/05 13:50:06;;;;;;;18.20;8.47;;;;;;;;;;5048503;28;20447;-68
2024/01/05 13:52:32;;;;;;;16.33;7.23;;;;;;;;;;5066600;28;20527;-68
2024/01/05 13:54:59;;;;;;;13.57;6.40;;;;;;;;;;5066603;28;20471;-68
2024/01/05 13:57:26;;;;;;;11.80;5.77;;;;;;;;;;5032068;28;20759;-67
2024/01/05 13:59:53;;;;;;;11.73;5.60;;;;;;;;;;5048891;28;20496;-72
2024/01/05 14:02:20;;;;;;;15.13;5.97;;;;;;;;;;5048987;28;20431;-73
2024/01/05 14:04:47;;;;;;;15.07;7.10;;;;;;;;;;5016242;28;20424;-72
2024/01/05 14:07:14;;;;;;;19.90;7.67;;;;;;;;;;5052236;28;20509;-69
2024/01/05 14:09:42;;;;;;;35.87;11.23;;;;;;;;;;5099966;28;20438;-69
2024/01/05 14:12:09;;;;;;;26.33;12.03;;;;;;;;;;5097947;28;20442;-69
2024/01/05 14:14:36;;;;;;;28.57;12.27;;;;;;;;;;5099101;28;20757;-69
2024/01/05 14:17:05;;;;;;;30.20;13.97;;;;;;;;;;5116515;28;20411;-69
2024/01/05 14:19:33;;;;;;;29.17;13.77;;;;;;;;;;5115611;28;20466;-69
2024/01/05 14:22:00;;;;;;;37.43;15.17;;;;;;;;;;5116492;28;20415;-69
2024/01/05 14:24:27;;;;;;;27.80;14.40;;;;;;;;;;5097789;28;20430;-69
2024/01/05 14:26:54;;;;;;;22.73;12.07;;;;;;;;;;5081890;28;20465;-69
2024/01/05 14:29:21;;;;;;;24.63;11.53;;;;;;;;;;5115713;28;20431;-69
2024/01/05 14:35:44;;;;;;;21.60;9.20;;;;;;;;;;5095354;28;20395;-69
2024/01/05 14:38:11;;;;;;;23.93;10.77;;;;;;;;;;5076942;28;20454;-71
2024/01/05 14:40:39;;;;;;;26.80;12.00;;;;;;;;;;5060815;28;20459;-71
2024/01/05 14:43:06;;;;;;;31.20;12.13;;;;;;;;;;5060851;28;20440;-69
2024/01/05 14:45:33;;;;;;;29.67;12.43;;;;;;;;;;5077105;28;20466;-69
2024/01/05 14:48:00;;;;;;;27.97;12.37;;;;;;;;;;5094940;28;20451;-68
2024/01/05 14:50:27;;;;;;;28.63;12.40;;;;;;;;;;5060601;28;20496;-70
2024/01/05 14:52:54;;;;;;;29.23;11.17;;;;;;;;;;5059758;28;20442;-81
2024/01/05 14:55:36;;;;;;;22.70;11.20;;;;;;;;;;5064776;28;20436;-68
2024/01/05 14:58:03;;;;;;;22.20;11.13;;;;;;;;;;5031451;28;20475;-68
2024/01/05 15:00:30;;;;;;;25.67;11.27;;;;;;;;;;5065200;28;20464;-71
2024/01/05 15:02:59;;;;;;;24.03;11.20;;;;;;;;;;5047573;28;20921;-72
2024/01/05 15:05:26;;;;;;;20.47;10.83;;;;;;;;;;5047711;28;20436;-72
2024/01/05 15:07:53;;;;;;;28.27;10.53;;;;;;;;;;5014327;28;20440;-72
2024/01/05 15:10:20;;;;;;;24.70;10.97;;;;;;;;;;5030815;28;20430;-72
2024/01/05 15:12:47;;;;;;;25.97;10.70;;;;;;;;;;5047304;28;20468;-71
2024/01/05 15:15:14;;;;;;;22.70;10.87;;;;;;;;;;5046795;28;20451;-72
2024/01/05 15:17:41;;;;;;;28.07;11.13;;;;;;;;;;5046557;28;20424;-71
2024/01/05 15:20:11;;;;;;;26.43;11.57;;;;;;;;;;5014058;28;20472;-74
2024/01/05 15:22:38;;;;;;;32.63;13.50;;;;;;;;;;5046560;28;20436;-72
2024/01/05 15:25:05;;;;;;;28.90;12.00;;;;;;;;;;5014166;28;20442;-69
2024/01/05 15:27:32;;;;;;;31.60;13.57;;;;;;;;;;5047482;28;20466;-69
2024/01/05 15:29:59;;;;;;;24.70;12.07;;;;;;;;;;5047381;28;20436;-68
2024/01/05 15:32:26;;;;;;;23.47;11.57;;;;;;;;;;5046861;28;20528;-68